Time;durP1;ratioP1;P1;durP2;ratioP2;P2;SDS_P1;SDS_P2;PMS_P1;PMS_P2;Temp;Humidity;BMP_temperature;BMP_pressure;BME280_temperature;BME280_humidity;BME280_pressure;Samples;Min_cycle;Max_cycle;Signal;HPM_P1;HPM_P2
2023/09/01 00:00:12;;;;;;;2.00;1.20;;;;;;;;;;6242946;23;20509;-92
2023/09/01 00:02:38;;;;;;;2.22;1.40;;;;;;;;;;6244252;23;20015;-92
2023/09/01 00:05:05;;;;;;;2.13;1.30;;;;;;;;;;6243795;23;20325;-92
2023/09/01 00:07:31;;;;;;;2.55;1.30;;;;;;;;;;6243433;23;20194;-91
2023/09/01 00:09:57;;;;;;;2.33;1.40;;;;;;;;;;6243873;23;20341;-91
2023/09/01 00:12:23;;;;;;;2.85;1.52;;;;;;;;;;6242867;23;20437;-91
2023/09/01 00:14:49;;;;;;;1.77;1.60;;;;;;;;;;6243461;23;20016;-90
2023/09/01 00:17:15;;;;;;;3.50;1.65;;;;;;;;;;6243093;23;20018;-91
2023/09/01 00:19:41;;;;;;;2.10;1.67;;;;;;;;;;6243782;23;20140;-91
2023/09/01 00:22:07;;;;;;;2.50;1.30;;;;;;;;;;6240521;23;20087;-91
2023/09/01 00:24:33;;;;;;;5.15;2.47;;;;;;;;;;6243637;23;20051;-91
2023/09/01 00:27:00;;;;;;;2.80;1.52;;;;;;;;;;6243478;23;20019;-92
2023/09/01 00:29:26;;;;;;;3.30;1.85;;;;;;;;;;6243270;23;20024;-91
2023/09/01 00:31:52;;;;;;;1.88;1.60;;;;;;;;;;6243881;23;20014;-91
2023/09/01 00:34:18;;;;;;;2.38;1.50;;;;;;;;;;6243509;23;20043;-91
2023/09/01 00:36:44;;;;;;;2.50;1.45;;;;;;;;;;6242628;23;20012;-92
2023/09/01 00:39:10;;;;;;;3.08;1.70;;;;;;;;;;6240946;23;20070;-91
2023/09/01 00:41:36;;;;;;;2.28;1.23;;;;;;;;;;6241847;23;20046;-92
2023/09/01 00:44:05;;;;;;;2.05;1.48;;;;;;;;;;6242511;23;20023;-92
2023/09/01 00:46:32;;;;;;;2.13;1.40;;;;;;;;;;6243604;23;20048;-92
2023/09/01 00:48:58;;;;;;;3.40;1.80;;;;;;;;;;6242705;22;20012;-92
2023/09/01 00:51:28;;;;;;;4.68;1.70;;;;;;;;;;6242879;23;20047;-91
2023/09/01 00:53:54;;;;;;;1.98;1.67;;;;;;;;;;6241395;23;20020;-91
2023/09/01 00:56:20;;;;;;;4.57;2.15;;;;;;;;;;6243508;23;20022;-91
2023/09/01 00:58:46;;;;;;;2.42;1.27;;;;;;;;;;6243295;23;20023;-91
2023/09/01 01:01:12;;;;;;;2.53;1.65;;;;;;;;;;6242591;23;20016;-91
2023/09/01 01:03:40;;;;;;;1.83;1.33;;;;;;;;;;6241145;23;20038;-90
2023/09/01 01:06:12;;;;;;;1.88;1.25;;;;;;;;;;6241860;23;20088;-91
2023/09/01 01:08:43;;;;;;;1.60;1.50;;;;;;;;;;6241401;23;20012;-91
2023/09/01 01:11:18;;;;;;;2.42;1.50;;;;;;;;;;6242302;23;20062;-91
2023/09/01 01:13:47;;;;;;;2.08;1.23;;;;;;;;;;6242113;23;20524;-91
2023/09/01 01:16:14;;;;;;;2.42;1.63;;;;;;;;;;6240606;23;20091;-91
2023/09/01 01:18:40;;;;;;;3.97;1.85;;;;;;;;;;6241674;23;20035;-92
2023/09/01 01:21:11;;;;;;;2.58;1.40;;;;;;;;;;6238624;23;20069;-91
2023/09/01 01:23:37;;;;;;;;;;;;;;;;;;6240774;23;20019;-92
2023/09/01 01:26:05;;;;;;;1.90;1.08;;;;;;;;;;6241509;22;19916;-92
2023/09/01 01:28:31;;;;;;;1.70;1.20;;;;;;;;;;6242036;22;20014;-91
2023/09/01 01:30:57;;;;;;;2.30;1.25;;;;;;;;;;6240662;23;20011;-91
2023/09/01 01:33:41;;;;;;;1.98;1.48;;;;;;;;;;6241808;23;20386;-91
2023/09/01 01:36:36;;;;;;;1.80;1.27;;;;;;;;;;6240705;23;20048;-91
2023/09/01 01:39:16;;;;;;;1.48;1.35;;;;;;;;;;6227852;23;20016;-92
2023/09/01 01:41:52;;;;;;;2.47;1.50;;;;;;;;;;6241634;23;20034;-92
2023/09/01 01:44:19;;;;;;;1.85;1.38;;;;;;;;;;6240585;23;20012;-92
2023/09/01 01:46:45;;;;;;;1.90;1.52;;;;;;;;;;6241557;23;20356;-91
2023/09/01 01:49:11;;;;;;;2.70;1.70;;;;;;;;;;6238356;23;20062;-92
2023/09/01 01:51:37;;;;;;;3.35;1.70;;;;;;;;;;6240141;23;20093;-91
2023/09/01 01:54:05;;;;;;;2.67;2.08;;;;;;;;;;6241317;23;20016;-91
2023/09/01 01:56:31;;;;;;;2.40;1.52;;;;;;;;;;6242938;23;20018;-91
2023/09/01 01:58:57;;;;;;;2.17;1.83;;;;;;;;;;6241313;23;20048;-92
2023/09/01 02:01:23;;;;;;;4.30;1.85;;;;;;;;;;6242294;23;20070;-92
2023/09/01 02:03:49;;;;;;;2.90;1.85;;;;;;;;;;6242435;23;20012;-91
2023/09/01 02:06:15;;;;;;;2.13;1.85;;;;;;;;;;6243548;23;20042;-93
2023/09/01 02:08:41;;;;;;;4.57;1.85;;;;;;;;;;6242163;23;20341;-91
2023/09/01 02:11:07;;;;;;;2.58;1.73;;;;;;;;;;6242148;23;20097;-91
2023/09/01 02:13:33;;;;;;;3.15;1.60;;;;;;;;;;6243489;23;20105;-92
2023/09/01 02:15:59;;;;;;;2.15;1.75;;;;;;;;;;6243135;23;20016;-92
2023/09/01 02:18:25;;;;;;;2.15;1.70;;;;;;;;;;6242993;23;20016;-92
2023/09/01 02:20:51;;;;;;;4.13;2.00;;;;;;;;;;6240934;23;20020;-91
2023/09/01 02:23:17;;;;;;;2.95;1.67;;;;;;;;;;6243091;23;20020;-91
2023/09/01 02:25:47;;;;;;;2.13;1.67;;;;;;;;;;6243282;23;20087;-92
2023/09/01 02:28:13;;;;;;;2.95;1.75;;;;;;;;;;6240716;23;20016;-92
2023/09/01 02:30:39;;;;;;;1.75;1.48;;;;;;;;;;6242384;23;20101;-91
2023/09/01 02:33:05;;;;;;;3.13;1.63;;;;;;;;;;6243278;23;20012;-92
2023/09/01 02:35:31;;;;;;;2.30;1.63;;;;;;;;;;6241542;23;20020;-91
2023/09/01 02:37:57;;;;;;;1.42;1.33;;;;;;;;;;6241902;23;20016;-91
2023/09/01 02:40:24;;;;;;;2.40;1.73;;;;;;;;;;6240918;23;20020;-92
2023/09/01 02:42:51;;;;;;;1.83;1.65;;;;;;;;;;6242916;23;20016;-91
2023/09/01 02:45:18;;;;;;;2.80;1.48;;;;;;;;;;6242439;23;20555;-91
2023/09/01 02:47:44;;;;;;;2.72;1.48;;;;;;;;;;6242886;23;20091;-91
2023/09/01 02:50:10;;;;;;;1.60;1.33;;;;;;;;;;6242143;23;20092;-91
2023/09/01 02:52:36;;;;;;;2.03;1.75;;;;;;;;;;6243711;23;20113;-92
2023/09/01 02:55:06;;;;;;;1.92;1.60;;;;;;;;;;6240427;23;20412;-91
2023/09/01 02:57:32;;;;;;;3.05;1.60;;;;;;;;;;6243364;23;20349;-91
2023/09/01 02:59:58;;;;;;;2.38;1.52;;;;;;;;;;6242799;23;20016;-92
2023/09/01 03:02:24;;;;;;;2.97;1.77;;;;;;;;;;6242531;23;20146;-92
2023/09/01 03:04:52;;;;;;;3.95;1.60;;;;;;;;;;6242917;23;20023;-92
2023/09/01 03:07:18;;;;;;;2.47;1.83;;;;;;;;;;6241758;23;20305;-91
2023/09/01 03:09:44;;;;;;;2.95;1.63;;;;;;;;;;6243148;23;20016;-92
2023/09/01 03:12:10;;;;;;;2.42;1.58;;;;;;;;;;6240751;23;20027;-91
2023/09/01 03:14:36;;;;;;;2.20;1.38;;;;;;;;;;6241559;23;20031;-91
2023/09/01 03:17:04;;;;;;;2.75;1.60;;;;;;;;;;6242181;22;20012;-92
2023/09/01 03:19:31;;;;;;;3.72;1.98;;;;;;;;;;6240372;23;20436;-92
2023/09/01 03:21:56;;;;;;;2.38;1.45;;;;;;;;;;6242433;23;20016;-91
2023/09/01 03:24:22;;;;;;;2.00;1.80;;;;;;;;;;6242219;23;20016;-90
2023/09/01 03:26:49;;;;;;;2.35;1.50;;;;;;;;;;6243212;23;20016;-92
2023/09/01 03:29:15;;;;;;;2.05;1.63;;;;;;;;;;6240400;23;20039;-91
2023/09/01 03:31:40;;;;;;;2.33;1.45;;;;;;;;;;6240593;23;20020;-92
2023/09/01 03:34:07;;;;;;;2.70;1.85;;;;;;;;;;6241811;23;20012;-91
2023/09/01 03:36:33;;;;;;;1.58;1.48;;;;;;;;;;6240663;23;20023;-92
2023/09/01 03:38:59;;;;;;;3.13;1.67;;;;;;;;;;6242147;23;20008;-92
2023/09/01 03:41:25;;;;;;;2.60;2.08;;;;;;;;;;6242526;23;20345;-92
2023/09/01 03:43:51;;;;;;;2.83;1.95;;;;;;;;;;6240575;23;20019;-91
2023/09/01 03:46:17;;;;;;;2.67;2.10;;;;;;;;;;6240286;23;20008;-92
2023/09/01 03:48:43;;;;;;;2.10;1.73;;;;;;;;;;6243380;23;20099;-92
2023/09/01 03:51:10;;;;;;;2.75;1.85;;;;;;;;;;6241305;23;20117;-91
2023/09/01 03:53:37;;;;;;;2.72;2.10;;;;;;;;;;6243073;23;20114;-92
2023/09/01 03:56:07;;;;;;;3.95;2.00;;;;;;;;;;6242006;23;20023;-91
2023/09/01 03:58:33;;;;;;;2.70;1.75;;;;;;;;;;6241078;23;20020;-91
2023/09/01 04:00:59;;;;;;;2.38;1.95;;;;;;;;;;6239288;23;20091;-91
2023/09/01 04:03:25;;;;;;;2.25;2.00;;;;;;;;;;6241675;23;20032;-91
2023/09/01 04:05:56;;;;;;;6.40;2.38;;;;;;;;;;6241434;23;20026;-91
2023/09/01 04:08:22;;;;;;;4.53;1.92;;;;;;;;;;6240824;23;20016;-92
2023/09/01 04:10:48;;;;;;;3.72;2.28;;;;;;;;;;6242640;23;20019;-92
2023/09/01 04:13:14;;;;;;;3.67;2.40;;;;;;;;;;6242228;23;20026;-92
2023/09/01 04:15:40;;;;;;;1.88;1.63;;;;;;;;;;6215073;23;20023;-91
2023/09/01 04:18:06;;;;;;;2.25;2.00;;;;;;;;;;6239500;23;20016;-90
2023/09/01 04:20:32;;;;;;;1.88;1.50;;;;;;;;;;6240220;23;20066;-90
2023/09/01 04:22:58;;;;;;;2.92;1.42;;;;;;;;;;6240223;23;20020;-90
2023/09/01 04:25:24;;;;;;;2.20;1.77;;;;;;;;;;6242243;23;20328;-91
2023/09/01 04:27:50;;;;;;;2.00;1.70;;;;;;;;;;6240230;23;20091;-91
2023/09/01 04:30:16;;;;;;;2.20;1.42;;;;;;;;;;6240364;23;20012;-90
2023/09/01 04:32:44;;;;;;;2.33;1.60;;;;;;;;;;6239877;23;20024;-90
2023/09/01 04:35:10;;;;;;;1.58;1.33;;;;;;;;;;6241595;23;20328;-91
2023/09/01 04:37:36;;;;;;;2.78;1.75;;;;;;;;;;6240708;23;20038;-93
2023/09/01 04:40:06;;;;;;;2.53;2.15;;;;;;;;;;6241360;23;20449;-91
2023/09/01 04:42:32;;;;;;;3.08;1.73;;;;;;;;;;6241685;23;20073;-91
2023/09/01 04:44:58;;;;;;;4.35;1.90;;;;;;;;;;6239338;23;20387;-92
2023/09/01 04:47:24;;;;;;;3.03;1.98;;;;;;;;;;6239930;23;20081;-91
2023/09/01 04:49:51;;;;;;;2.70;2.30;;;;;;;;;;6240170;23;20146;-91
2023/09/01 04:52:17;;;;;;;5.53;2.72;;;;;;;;;;6239513;23;20449;-91
2023/09/01 04:54:42;;;;;;;2.55;1.98;;;;;;;;;;6240489;23;20047;-91
2023/09/01 04:57:08;;;;;;;3.28;2.17;;;;;;;;;;6239059;23;20024;-91
2023/09/01 04:59:35;;;;;;;3.67;2.30;;;;;;;;;;6240092;23;20451;-91
2023/09/01 05:02:01;;;;;;;2.38;1.95;;;;;;;;;;6239126;23;20310;-91
2023/09/01 05:04:27;;;;;;;3.70;2.22;;;;;;;;;;6239391;23;20341;-90
2023/09/01 05:06:53;;;;;;;4.35;2.13;;;;;;;;;;6242007;23;20087;-91
2023/09/01 05:09:20;;;;;;;3.97;2.70;;;;;;;;;;6241591;23;20480;-91
2023/09/01 05:11:46;;;;;;;3.05;2.47;;;;;;;;;;6241038;23;20014;-91
2023/09/01 05:14:11;;;;;;;2.42;2.05;;;;;;;;;;6239468;23;20416;-91
2023/09/01 05:16:37;;;;;;;3.42;2.55;;;;;;;;;;6240485;23;20108;-91
2023/09/01 05:19:04;;;;;;;4.00;2.58;;;;;;;;;;6241258;23;20329;-90
2023/09/01 05:21:30;;;;;;;2.80;2.08;;;;;;;;;;6241182;23;20099;-94
2023/09/01 05:23:56;;;;;;;3.45;2.00;;;;;;;;;;6240337;23;20045;-90
2023/09/01 05:26:21;;;;;;;2.83;1.95;;;;;;;;;;6238018;23;20020;-88
2023/09/01 05:28:47;;;;;;;2.20;1.65;;;;;;;;;;6241825;23;20008;-92
2023/09/01 05:31:13;;;;;;;4.88;2.58;;;;;;;;;;6242102;23;20020;-94
2023/09/01 05:33:39;;;;;;;2.58;1.80;;;;;;;;;;6247322;23;20063;-95
2023/09/01 05:36:05;;;;;;;2.53;2.08;;;;;;;;;;6248114;23;20016;-94
2023/09/01 05:38:31;;;;;;;2.38;1.67;;;;;;;;;;6250521;23;20023;-95
2023/09/01 05:40:58;;;;;;;2.40;2.17;;;;;;;;;;6248560;23;20012;-94
2023/09/01 05:43:25;;;;;;;4.30;2.67;;;;;;;;;;6247832;23;20008;-92
2023/09/01 05:45:51;;;;;;;2.65;1.90;;;;;;;;;;6244228;23;20022;-90
2023/09/01 05:48:17;;;;;;;2.90;1.70;;;;;;;;;;6242367;23;20082;-92
2023/09/01 05:50:44;;;;;;;2.45;1.88;;;;;;;;;;6245489;23;20346;-91
2023/09/01 05:53:10;;;;;;;4.85;2.05;;;;;;;;;;6241410;23;20020;-93
2023/09/01 05:55:36;;;;;;;3.67;2.00;;;;;;;;;;6243100;23;20150;-93
2023/09/01 05:58:02;;;;;;;2.30;2.00;;;;;;;;;;6249827;23;20085;-93
2023/09/01 06:00:29;;;;;;;3.25;2.47;;;;;;;;;;6246631;23;20068;-93
2023/09/01 06:02:55;;;;;;;3.58;2.30;;;;;;;;;;6243381;23;20043;-91
2023/09/01 06:05:21;;;;;;;2.90;2.00;;;;;;;;;;6248835;23;20595;-91
2023/09/01 06:07:48;;;;;;;3.92;2.45;;;;;;;;;;6242641;23;20083;-93
2023/09/01 06:10:15;;;;;;;3.95;2.08;;;;;;;;;;6240679;23;20453;-92
2023/09/01 06:12:41;;;;;;;2.97;2.33;;;;;;;;;;6246593;23;20016;-93
2023/09/01 06:15:07;;;;;;;3.00;2.17;;;;;;;;;;6242452;23;20023;-91
2023/09/01 06:17:33;;;;;;;4.97;2.80;;;;;;;;;;6239427;23;20020;-90
2023/09/01 06:20:00;;;;;;;2.80;2.35;;;;;;;;;;6239881;23;20061;-90
2023/09/01 06:22:26;;;;;;;2.50;2.30;;;;;;;;;;6239763;23;20059;-89
2023/09/01 06:24:52;;;;;;;2.83;2.28;;;;;;;;;;6241969;23;20016;-90
2023/09/01 06:27:18;;;;;;;3.88;2.45;;;;;;;;;;6239773;23;20015;-90
2023/09/01 06:29:44;;;;;;;3.00;2.00;;;;;;;;;;6239774;23;20330;-88
2023/09/01 06:32:11;;;;;;;4.85;2.30;;;;;;;;;;6239210;23;20374;-91
2023/09/01 06:34:38;;;;;;;4.35;2.70;;;;;;;;;;6240919;23;20016;-91
2023/09/01 06:37:04;;;;;;;4.13;2.90;;;;;;;;;;6237442;23;20012;-90
2023/09/01 06:39:30;;;;;;;2.95;2.35;;;;;;;;;;6240367;23;20016;-89
2023/09/01 06:41:56;;;;;;;4.72;2.33;;;;;;;;;;6239510;23;20031;-89
2023/09/01 06:44:22;;;;;;;2.53;2.13;;;;;;;;;;6241998;23;20083;-88
2023/09/01 06:46:48;;;;;;;3.28;2.17;;;;;;;;;;6241254;23;20435;-90
2023/09/01 06:49:15;;;;;;;3.88;2.38;;;;;;;;;;6243122;23;20039;-91
2023/09/01 06:51:41;;;;;;;3.60;2.78;;;;;;;;;;6243827;23;20043;-89
2023/09/01 06:54:07;;;;;;;5.38;3.67;;;;;;;;;;6241363;23;20028;-83
2023/09/01 06:56:33;;;;;;;8.15;4.28;;;;;;;;;;6216174;23;20012;-85
2023/09/01 06:58:59;;;;;;;6.13;4.43;;;;;;;;;;6215371;23;20016;-84
2023/09/01 07:01:28;;;;;;;7.68;5.78;;;;;;;;;;6239246;23;20020;-84
2023/09/01 07:03:55;;;;;;;8.05;5.97;;;;;;;;;;6240461;23;20019;-85
2023/09/01 07:06:21;;;;;;;7.57;5.00;;;;;;;;;;6240265;23;20044;-85
2023/09/01 07:08:47;;;;;;;7.57;5.50;;;;;;;;;;6239239;23;20130;-86
2023/09/01 07:11:14;;;;;;;9.30;5.50;;;;;;;;;;6240411;23;20421;-88
2023/09/01 07:13:41;;;;;;;9.82;6.28;;;;;;;;;;6239877;23;20012;-90
2023/09/01 07:16:07;;;;;;;10.10;6.15;;;;;;;;;;6242001;23;20087;-89
2023/09/01 07:18:33;;;;;;;8.52;5.82;;;;;;;;;;6242439;23;20040;-90
2023/09/01 07:20:59;;;;;;;6.85;5.78;;;;;;;;;;6240382;23;20012;-90
2023/09/01 07:23:26;;;;;;;8.65;5.50;;;;;;;;;;6241791;23;20522;-91
2023/09/01 07:25:52;;;;;;;8.23;5.82;;;;;;;;;;6240213;23;20016;-89
2023/09/01 07:28:18;;;;;;;7.40;5.75;;;;;;;;;;6242265;23;20012;-89
2023/09/01 07:30:44;;;;;;;7.18;4.60;;;;;;;;;;6242512;23;20024;-90
2023/09/01 07:33:10;;;;;;;5.95;4.55;;;;;;;;;;6241539;23;20012;-92
2023/09/01 07:35:36;;;;;;;7.13;5.25;;;;;;;;;;6243088;23;20383;-87
2023/09/01 07:38:03;;;;;;;7.68;5.03;;;;;;;;;;6244119;23;20047;-93
2023/09/01 07:40:32;;;;;;;7.68;5.25;;;;;;;;;;6253016;23;20027;-94
2023/09/01 07:42:58;;;;;;;6.57;4.57;;;;;;;;;;6245318;23;20035;-92
2023/09/01 07:45:24;;;;;;;7.07;5.05;;;;;;;;;;6246049;23;20047;-92
2023/09/01 07:47:50;;;;;;;7.78;4.93;;;;;;;;;;6243594;23;20020;-93
2023/09/01 07:50:17;;;;;;;6.55;4.82;;;;;;;;;;6250721;23;20016;-94
2023/09/01 07:52:43;;;;;;;8.35;6.22;;;;;;;;;;6249508;23;20016;-94
2023/09/01 07:55:09;;;;;;;7.70;5.47;;;;;;;;;;6244659;23;20365;-93
2023/09/01 07:57:35;;;;;;;8.57;5.78;;;;;;;;;;6247217;23;20015;-95
2023/09/01 08:00:05;;;;;;;7.90;5.50;;;;;;;;;;6244970;23;20013;-94
2023/09/01 08:02:31;;;;;;;9.88;5.80;;;;;;;;;;6245492;23;20086;-94
2023/09/01 08:04:57;;;;;;;7.80;5.55;;;;;;;;;;6242535;23;20070;-90
2023/09/01 08:07:23;;;;;;;9.98;6.40;;;;;;;;;;6241416;23;20016;-93
2023/09/01 08:09:49;;;;;;;8.13;6.05;;;;;;;;;;6245967;23;20026;-93
2023/09/01 08:12:15;;;;;;;7.72;6.18;;;;;;;;;;6243772;23;20090;-95
2023/09/01 08:14:41;;;;;;;8.70;5.85;;;;;;;;;;6245571;23;20016;-94
2023/09/01 08:17:07;;;;;;;7.10;5.90;;;;;;;;;;6249549;23;20020;-95
2023/09/01 08:19:33;;;;;;;8.38;5.25;;;;;;;;;;6246162;23;20012;-94
2023/09/01 08:22:01;;;;;;;11.20;7.22;;;;;;;;;;6239809;23;20048;-91
2023/09/01 08:24:27;;;;;;;8.68;6.35;;;;;;;;;;6242285;23;20015;-90
2023/09/01 08:26:53;;;;;;;8.88;6.18;;;;;;;;;;6242416;23;20011;-91
2023/09/01 08:29:19;;;;;;;10.95;7.43;;;;;;;;;;6239820;23;20015;-95
2023/09/01 08:31:45;;;;;;;10.70;6.32;;;;;;;;;;6240720;23;20332;-92
2023/09/01 08:34:11;;;;;;;10.40;6.28;;;;;;;;;;6239168;23;20024;-92
2023/09/01 08:36:38;;;;;;;10.13;7.25;;;;;;;;;;6241852;23;20336;-92
2023/09/01 08:39:05;;;;;;;11.45;7.07;;;;;;;;;;6240237;23;20020;-95
2023/09/01 08:41:32;;;;;;;8.48;5.63;;;;;;;;;;6239052;23;20078;-92
2023/09/01 08:44:02;;;;;;;11.25;6.53;;;;;;;;;;6242072;23;20012;-94
2023/09/01 08:46:29;;;;;;;10.25;6.10;;;;;;;;;;6244351;23;20016;-96
2023/09/01 08:48:55;;;;;;;11.32;6.43;;;;;;;;;;6240419;23;20020;-93
2023/09/01 08:51:22;;;;;;;9.48;6.03;;;;;;;;;;6241536;23;20134;-94
2023/09/01 08:53:49;;;;;;;8.00;4.93;;;;;;;;;;6243577;23;20015;-96
2023/09/01 08:56:15;;;;;;;6.78;4.78;;;;;;;;;;6242428;23;20054;-94
2023/09/01 08:58:41;;;;;;;8.63;5.13;;;;;;;;;;6243968;23;20075;-95
2023/09/01 09:01:08;;;;;;;9.77;6.55;;;;;;;;;;6241205;23;20016;-91
2023/09/01 09:03:34;;;;;;;8.82;6.22;;;;;;;;;;6243369;23;20008;-91
2023/09/01 09:06:02;;;;;;;8.43;5.85;;;;;;;;;;6239621;23;20008;-91
2023/09/01 09:08:29;;;;;;;9.70;6.00;;;;;;;;;;6241345;23;20039;-91
2023/09/01 09:10:55;;;;;;;10.50;4.88;;;;;;;;;;6240468;23;20019;-84
2023/09/01 09:13:21;;;;;;;11.80;6.18;;;;;;;;;;6241335;23;20016;-88
2023/09/01 09:16:05;;;;;;;9.30;6.60;;;;;;;;;;6240400;23;20091;-86
2023/09/01 09:18:31;;;;;;;9.50;6.07;;;;;;;;;;6239391;23;20024;-87
2023/09/01 09:20:57;;;;;;;10.07;6.35;;;;;;;;;;6239472;23;20066;-88
2023/09/01 09:23:41;;;;;;;11.85;6.43;;;;;;;;;;6239588;23;20012;-87
2023/09/01 09:26:07;;;;;;;10.40;6.20;;;;;;;;;;6212901;23;20016;-86
2023/09/01 09:28:33;;;;;;;10.85;6.35;;;;;;;;;;6240494;23;20333;-86
2023/09/01 09:31:00;;;;;;;9.43;6.50;;;;;;;;;;6237631;23;20526;-90
2023/09/01 09:33:27;;;;;;;11.32;7.03;;;;;;;;;;6238921;23;20016;-87
2023/09/01 09:35:53;;;;;;;10.02;6.78;;;;;;;;;;6240874;23;20310;-87
2023/09/01 09:38:19;;;;;;;9.38;6.32;;;;;;;;;;6239704;23;20019;-88
2023/09/01 09:41:11;;;;;;;9.48;5.85;;;;;;;;;;6239034;23;20023;-87
2023/09/01 09:43:45;;;;;;;10.23;5.88;;;;;;;;;;6212378;23;20395;-86
2023/09/01 09:46:11;;;;;;;14.05;7.38;;;;;;;;;;6240104;23;20016;-86
2023/09/01 09:48:38;;;;;;;12.45;6.03;;;;;;;;;;6239195;23;20090;-88
2023/09/01 09:51:07;;;;;;;8.63;5.88;;;;;;;;;;6241647;23;20014;-86
2023/09/01 09:53:34;;;;;;;9.88;6.15;;;;;;;;;;6242335;23;20432;-89
2023/09/01 09:56:02;;;;;;;7.75;5.60;;;;;;;;;;6242049;23;20329;-85
2023/09/01 09:58:33;;;;;;;7.00;4.97;;;;;;;;;;6242404;23;20468;-84
2023/09/01 10:00:59;;;;;;;;;;;;;;;;;;6242051;23;20019;-84
2023/09/01 10:03:29;;;;;;;6.43;3.70;;;;;;;;;;6240723;22;19912;-85
2023/09/01 10:05:55;;;;;;;7.93;4.13;;;;;;;;;;6239388;23;20114;-84
2023/09/01 10:08:23;;;;;;;7.28;4.03;;;;;;;;;;6241882;23;20024;-84
2023/09/01 10:10:49;;;;;;;6.88;4.50;;;;;;;;;;6243676;23;20326;-84
2023/09/01 10:13:15;;;;;;;6.97;3.55;;;;;;;;;;6243628;23;20016;-85
2023/09/01 10:15:42;;;;;;;5.95;3.25;;;;;;;;;;6242465;23;20023;-85
2023/09/01 10:18:09;;;;;;;8.65;4.72;;;;;;;;;;6239872;23;20023;-85
2023/09/01 10:20:36;;;;;;;5.22;3.55;;;;;;;;;;6242413;23;20401;-85
2023/09/01 10:23:03;;;;;;;5.63;3.85;;;;;;;;;;6241901;23;20476;-84
2023/09/01 10:25:29;;;;;;;7.07;3.65;;;;;;;;;;6242068;23;20051;-89
2023/09/01 10:28:12;;;;;;;8.27;3.97;;;;;;;;;;6239677;23;20023;-88
2023/09/01 10:30:39;;;;;;;5.72;3.88;;;;;;;;;;6242615;23;20062;-87
2023/09/01 10:33:17;;;;;;;7.70;4.07;;;;;;;;;;6248339;23;20012;-90
2023/09/01 10:35:44;;;;;;;7.50;4.50;;;;;;;;;;6246798;23;20023;-90
2023/09/01 10:38:11;;;;;;;6.28;4.57;;;;;;;;;;6243098;23;20043;-89
2023/09/01 10:40:41;;;;;;;8.30;4.47;;;;;;;;;;6245451;23;20472;-90
2023/09/01 10:43:07;;;;;;;8.02;4.50;;;;;;;;;;6239158;23;20130;-90
2023/09/01 10:45:33;;;;;;;6.97;4.65;;;;;;;;;;6241753;23;20039;-89
2023/09/01 10:48:00;;;;;;;10.93;3.95;;;;;;;;;;6239686;23;20413;-89
2023/09/01 10:50:26;;;;;;;8.70;4.75;;;;;;;;;;6241727;23;20016;-90
2023/09/01 10:53:11;;;;;;;6.88;3.90;;;;;;;;;;6242947;23;20349;-89
2023/09/01 10:55:56;;;;;;;5.65;3.85;;;;;;;;;;6244042;23;20031;-89
2023/09/01 10:58:22;;;;;;;8.52;4.40;;;;;;;;;;6242971;23;20062;-90
2023/09/01 11:00:51;;;;;;;6.93;3.85;;;;;;;;;;6242556;22;20048;-91
2023/09/01 11:03:30;;;;;;;6.50;3.72;;;;;;;;;;6242698;23;20044;-89
2023/09/01 11:06:00;;;;;;;5.07;2.80;;;;;;;;;;6240494;23;20012;-88
2023/09/01 11:08:26;;;;;;;5.43;3.33;;;;;;;;;;6244454;23;20380;-94
2023/09/01 11:10:55;;;;;;;7.43;3.25;;;;;;;;;;6243581;23;20022;-91
2023/09/01 11:13:21;;;;;;;6.25;3.42;;;;;;;;;;6243665;23;20352;-89
2023/09/01 11:15:47;;;;;;;7.28;3.92;;;;;;;;;;6243376;23;20147;-90
2023/09/01 11:18:16;;;;;;;5.10;3.05;;;;;;;;;;6241243;23;20055;-91
2023/09/01 11:20:43;;;;;;;7.85;2.97;;;;;;;;;;6240416;23;20100;-89
2023/09/01 11:23:09;;;;;;;7.47;2.55;;;;;;;;;;6242190;23;20344;-90
2023/09/01 11:25:35;;;;;;;4.90;2.35;;;;;;;;;;6243194;23;20019;-90
2023/09/01 11:28:02;;;;;;;5.28;2.42;;;;;;;;;;6241412;23;20016;-89
2023/09/01 11:30:28;;;;;;;6.00;3.20;;;;;;;;;;6240525;23;20024;-90
2023/09/01 11:32:55;;;;;;;3.95;2.53;;;;;;;;;;6242450;23;20016;-92
2023/09/01 11:35:25;;;;;;;8.75;3.00;;;;;;;;;;6242380;23;20356;-87
2023/09/01 11:37:51;;;;;;;3.45;2.53;;;;;;;;;;6242078;23;20027;-85
2023/09/01 11:40:17;;;;;;;3.85;2.85;;;;;;;;;;6241785;23;20012;-87
2023/09/01 11:42:44;;;;;;;5.10;2.50;;;;;;;;;;6239684;23;20012;-85
2023/09/01 11:45:11;;;;;;;5.65;2.72;;;;;;;;;;6240927;23;20012;-86
2023/09/01 11:47:37;;;;;;;4.93;2.50;;;;;;;;;;6240096;23;20012;-86
2023/09/01 11:50:04;;;;;;;4.55;2.58;;;;;;;;;;6241691;23;20118;-87
2023/09/01 11:52:30;;;;;;;5.70;3.20;;;;;;;;;;6240800;23;20058;-85
2023/09/01 11:54:56;;;;;;;5.18;2.63;;;;;;;;;;6240549;23;20020;-87
2023/09/01 11:57:23;;;;;;;4.78;2.92;;;;;;;;;;6241324;23;20113;-86
2023/09/01 11:59:50;;;;;;;5.80;3.33;;;;;;;;;;6239523;23;20074;-89
2023/09/01 12:02:20;;;;;;;6.05;3.22;;;;;;;;;;6239559;23;20019;-86
2023/09/01 12:04:50;;;;;;;4.18;3.03;;;;;;;;;;6241876;23;20046;-86
2023/09/01 12:07:26;;;;;;;4.55;2.67;;;;;;;;;;6242038;23;20063;-87
2023/09/01 12:09:52;;;;;;;;;;;;;;;;;;6241559;23;20456;-87
2023/09/01 12:12:18;;;;;;;3.78;2.13;;;;;;;;;;6241136;22;19912;-85
2023/09/01 12:14:44;;;;;;;4.25;2.38;;;;;;;;;;6242892;23;20054;-86
2023/09/01 12:17:21;;;;;;;5.88;2.75;;;;;;;;;;6240991;23;20012;-86
2023/09/01 12:19:52;;;;;;;6.85;2.95;;;;;;;;;;6239631;23;20079;-88
2023/09/01 12:22:20;;;;;;;5.30;2.50;;;;;;;;;;6241884;23;20015;-85
2023/09/01 12:24:52;;;;;;;4.85;2.40;;;;;;;;;;6241463;23;20008;-84
2023/09/01 12:27:18;;;;;;;4.38;2.55;;;;;;;;;;6240495;23;20012;-84
2023/09/01 12:29:45;;;;;;;3.25;2.17;;;;;;;;;;6242536;23;20495;-83
2023/09/01 12:32:11;;;;;;;3.90;2.25;;;;;;;;;;6241555;23;20040;-84
2023/09/01 12:34:37;;;;;;;6.28;2.58;;;;;;;;;;6241673;22;20096;-81
2023/09/01 12:37:03;;;;;;;3.45;2.03;;;;;;;;;;6241959;23;20015;-84
2023/09/01 12:39:29;;;;;;;4.85;2.40;;;;;;;;;;6241645;23;20099;-83
2023/09/01 12:41:55;;;;;;;3.58;2.30;;;;;;;;;;6239558;23;20101;-81
2023/09/01 12:44:21;;;;;;;4.13;2.10;;;;;;;;;;6241789;23;20447;-84
2023/09/01 12:46:47;;;;;;;4.82;2.53;;;;;;;;;;6240557;23;20055;-83
2023/09/01 12:49:13;;;;;;;7.53;3.00;;;;;;;;;;6238216;23;20016;-84
2023/09/01 12:51:42;;;;;;;6.28;3.38;;;;;;;;;;6240482;23;20047;-83
2023/09/01 12:54:08;;;;;;;4.10;2.50;;;;;;;;;;6240900;23;20023;-85
2023/09/01 12:56:34;;;;;;;3.55;2.20;;;;;;;;;;6240054;23;20066;-84
2023/09/01 12:59:00;;;;;;;6.47;2.78;;;;;;;;;;6242016;23;20016;-85
2023/09/01 13:01:26;;;;;;;4.13;2.88;;;;;;;;;;6241755;23;20008;-85
2023/09/01 13:03:52;;;;;;;6.65;2.50;;;;;;;;;;6240169;23;20246;-81
2023/09/01 13:06:18;;;;;;;4.80;2.28;;;;;;;;;;6240878;23;20444;-82
2023/09/01 13:08:44;;;;;;;4.07;1.98;;;;;;;;;;6240600;23;20058;-82
2023/09/01 13:11:10;;;;;;;3.75;2.03;;;;;;;;;;6239057;23;20019;-82
2023/09/01 13:13:37;;;;;;;3.47;2.10;;;;;;;;;;6242105;23;20016;-82
2023/09/01 13:16:03;;;;;;;3.92;1.85;;;;;;;;;;6241232;23;20737;-82
2023/09/01 13:18:29;;;;;;;6.78;2.30;;;;;;;;;;6241823;23;20374;-82
2023/09/01 13:20:55;;;;;;;6.05;2.28;;;;;;;;;;6241342;23;20082;-82
2023/09/01 13:23:21;;;;;;;4.03;2.00;;;;;;;;;;6239597;23;20198;-82
2023/09/01 13:25:47;;;;;;;5.70;2.58;;;;;;;;;;6239138;23;20039;-82
2023/09/01 13:28:13;;;;;;;2.63;1.80;;;;;;;;;;6240985;23;20016;-82
2023/09/01 13:30:39;;;;;;;4.65;1.85;;;;;;;;;;6240388;23;20012;-82
2023/09/01 13:33:05;;;;;;;3.28;1.77;;;;;;;;;;6240692;23;20333;-83
2023/09/01 13:35:31;;;;;;;4.55;2.03;;;;;;;;;;6240600;23;20019;-82
2023/09/01 13:37:57;;;;;;;3.13;1.90;;;;;;;;;;6240749;23;20116;-82
2023/09/01 13:40:25;;;;;;;3.80;2.03;;;;;;;;;;6240285;23;20020;-83
2023/09/01 13:42:52;;;;;;;3.72;1.90;;;;;;;;;;6241054;23;20024;-82
2023/09/01 13:45:18;;;;;;;3.47;1.63;;;;;;;;;;6240459;23;20012;-82
2023/09/01 13:47:45;;;;;;;4.93;1.70;;;;;;;;;;6239522;23;20057;-81
2023/09/01 13:50:11;;;;;;;4.38;1.70;;;;;;;;;;6240189;23;20016;-81
2023/09/01 13:52:37;;;;;;;2.72;1.63;;;;;;;;;;6243549;23;20012;-83
2023/09/01 13:55:03;;;;;;;3.30;1.65;;;;;;;;;;6240073;23;20095;-81
2023/09/01 13:57:29;;;;;;;2.90;1.77;;;;;;;;;;6241501;23;20016;-82
2023/09/01 13:59:55;;;;;;;3.25;1.63;;;;;;;;;;6242139;23;20437;-84
2023/09/01 14:02:21;;;;;;;4.10;1.55;;;;;;;;;;6242554;23;20062;-82
2023/09/01 14:04:49;;;;;;;3.83;1.70;;;;;;;;;;6243520;23;20722;-82
2023/09/01 14:07:15;;;;;;;2.25;1.30;;;;;;;;;;6214266;23;20020;-84
2023/09/01 14:09:41;;;;;;;1.92;1.60;;;;;;;;;;6214964;23;20349;-83
2023/09/01 14:12:07;;;;;;;1.27;1.15;;;;;;;;;;6239474;23;20027;-83
2023/09/01 14:14:33;;;;;;;4.38;1.80;;;;;;;;;;6241223;23;20012;-83
2023/09/01 14:16:59;;;;;;;3.88;1.95;;;;;;;;;;6240415;23;20070;-85
2023/09/01 14:19:25;;;;;;;3.03;1.75;;;;;;;;;;6243034;23;20127;-82
2023/09/01 14:21:51;;;;;;;2.78;1.88;;;;;;;;;;6240952;23;20088;-83
2023/09/01 14:24:17;;;;;;;3.72;1.80;;;;;;;;;;6240397;23;20012;-84
2023/09/01 14:26:48;;;;;;;2.97;1.98;;;;;;;;;;6243967;23;20336;-83
2023/09/01 14:29:14;;;;;;;2.78;1.63;;;;;;;;;;6242990;23;20016;-85
2023/09/01 14:31:40;;;;;;;1.52;1.42;;;;;;;;;;6242972;23;20023;-83
2023/09/01 14:34:06;;;;;;;5.95;1.77;;;;;;;;;;6240009;23;20012;-83
2023/09/01 14:36:32;;;;;;;1.88;1.42;;;;;;;;;;6214726;23;20027;-82
2023/09/01 14:38:58;;;;;;;4.47;1.50;;;;;;;;;;6241600;23;20012;-83
2023/09/01 14:41:24;;;;;;;4.13;2.28;;;;;;;;;;6214992;23;20345;-83